sensor_id;sensor_type;location;lat;lon;timestamp;pressure;altitude;pressure_sealevel;temperature;humidity
72395;BME280;60384;48.152;11.614;2022-12-18T00:01:44;96715.94;;;-2.90;74.20
72395;BME280;60384;48.152;11.614;2022-12-18T00:04:47;96718.19;;;-2.94;74.91
72395;BME280;60384;48.152;11.614;2022-12-18T00:07:50;96721.41;;;-2.98;75.49
72395;BME280;60384;48.152;11.614;2022-12-18T00:10:52;96716.81;;;-3.03;75.96
72395;BME280;60384;48.152;11.614;2022-12-18T00:13:55;96706.38;;;-3.09;75.93
72395;BME280;60384;48.152;11.614;2022-12-18T00:16:58;96713.78;;;-3.13;74.90
72395;BME280;60384;48.152;11.614;2022-12-18T00:20:01;96715.03;;;-3.15;74.47
72395;BME280;60384;48.152;11.614;2022-12-18T00:23:06;96713.59;;;-3.18;74.42
72395;BME280;60384;48.152;11.614;2022-12-18T00:26:14;96720.06;;;-3.20;75.13
72395;BME280;60384;48.152;11.614;2022-12-18T00:29:17;96715.03;;;-3.22;74.57
72395;BME280;60384;48.152;11.614;2022-12-18T00:32:19;96709.19;;;-3.24;74.86
72395;BME280;60384;48.152;11.614;2022-12-18T00:35:21;96726.09;;;-3.26;75.56
72395;BME280;60384;48.152;11.614;2022-12-18T00:38:24;96736.75;;;-3.28;75.39
72395;BME280;60384;48.152;11.614;2022-12-18T00:41:27;96748.19;;;-3.29;75.43
72395;BME280;60384;48.152;11.614;2022-12-18T00:44:47;96741.97;;;-3.28;75.71
72395;BME280;60384;48.152;11.614;2022-12-18T00:47:49;96740.34;;;-3.29;74.52
72395;BME280;60384;48.152;11.614;2022-12-18T00:50:51;96744.56;;;-3.28;75.85
72395;BME280;60384;48.152;11.614;2022-12-18T00:53:54;96749.19;;;-3.30;74.16
72395;BME280;60384;48.152;11.614;2022-12-18T00:56:56;96751.03;;;-3.30;74.61
72395;BME280;60384;48.152;11.614;2022-12-18T00:59:58;96749.00;;;-3.28;74.88
72395;BME280;60384;48.152;11.614;2022-12-18T01:03:00;96745.38;;;-3.27;74.22
72395;BME280;60384;48.152;11.614;2022-12-18T01:06:05;96750.00;;;-3.29;75.16
72395;BME280;60384;48.152;11.614;2022-12-18T01:09:08;96759.25;;;-3.34;74.81
72395;BME280;60384;48.152;11.614;2022-12-18T01:12:11;96749.41;;;-3.38;75.34
72395;BME280;60384;48.152;11.614;2022-12-18T01:15:13;96766.09;;;-3.39;75.63
72395;BME280;60384;48.152;11.614;2022-12-18T01:18:17;96763.28;;;-3.38;75.31
72395;BME280;60384;48.152;11.614;2022-12-18T01:21:19;96775.34;;;-3.37;75.05
72395;BME280;60384;48.152;11.614;2022-12-18T01:24:23;96784.16;;;-3.38;75.64
72395;BME280;60384;48.152;11.614;2022-12-18T01:27:26;96785.38;;;-3.40;74.53
72395;BME280;60384;48.152;11.614;2022-12-18T01:30:27;96790.00;;;-3.42;74.20
72395;BME280;60384;48.152;11.614;2022-12-18T01:33:29;96803.06;;;-3.42;75.85
72395;BME280;60384;48.152;11.614;2022-12-18T01:36:33;96810.09;;;-3.43;74.20
72395;BME280;60384;48.152;11.614;2022-12-18T01:39:37;96808.06;;;-3.41;74.17
72395;BME280;60384;48.152;11.614;2022-12-18T01:42:39;96804.44;;;-3.40;74.79
72395;BME280;60384;48.152;11.614;2022-12-18T01:45:42;96808.69;;;-3.39;75.43
72395;BME280;60384;48.152;11.614;2022-12-18T01:48:44;96812.91;;;-3.38;74.20
72395;BME280;60384;48.152;11.614;2022-12-18T01:51:46;96803.66;;;-3.40;74.73
72395;BME280;60384;48.152;11.614;2022-12-18T01:54:50;96807.88;;;-3.39;74.51
72395;BME280;60384;48.152;11.614;2022-12-18T01:57:55;96807.88;;;-3.39;75.58
72395;BME280;60384;48.152;11.614;2022-12-18T02:00:58;96808.69;;;-3.39;74.10
72395;BME280;60384;48.152;11.614;2022-12-18T02:04:19;96805.25;;;-3.39;75.68
72395;BME280;60384;48.152;11.614;2022-12-18T02:07:28;96794.00;;;-3.40;75.74
72395;BME280;60384;48.152;11.614;2022-12-18T02:10:41;96795.19;;;-3.36;75.84
72395;BME280;60384;48.152;11.614;2022-12-18T02:13:53;96796.81;;;-3.35;74.65
72395;BME280;60384;48.152;11.614;2022-12-18T02:17:03;96794.19;;;-3.35;75.37
72395;BME280;60384;48.152;11.614;2022-12-18T02:20:13;96783.16;;;-3.37;75.22
72395;BME280;60384;48.152;11.614;2022-12-18T02:23:27;96784.97;;;-3.37;74.16
72395;BME280;60384;48.152;11.614;2022-12-18T02:26:40;96782.75;;;-3.40;75.08
72395;BME280;60384;48.152;11.614;2022-12-18T02:29:49;96789.78;;;-3.41;75.03
72395;BME280;60384;48.152;11.614;2022-12-18T02:32:53;96788.78;;;-3.40;74.93
72395;BME280;60384;48.152;11.614;2022-12-18T02:35:57;96786.97;;;-3.39;74.83
72395;BME280;60384;48.152;11.614;2022-12-18T02:39:03;96783.56;;;-3.40;74.15
72395;BME280;60384;48.152;11.614;2022-12-18T02:42:08;96785.97;;;-3.38;74.85
72395;BME280;60384;48.152;11.614;2022-12-18T02:45:10;96785.16;;;-3.39;75.70
72395;BME280;60384;48.152;11.614;2022-12-18T02:48:13;96777.53;;;-3.40;75.72
72395;BME280;60384;48.152;11.614;2022-12-18T02:51:22;96778.75;;;-3.43;75.84
72395;BME280;60384;48.152;11.614;2022-12-18T02:54:39;96790.19;;;-3.44;75.42
72395;BME280;60384;48.152;11.614;2022-12-18T02:57:49;96792.81;;;-3.44;74.97
72395;BME280;60384;48.152;11.614;2022-12-18T03:01:02;96787.38;;;-3.42;75.20
72395;BME280;60384;48.152;11.614;2022-12-18T03:04:09;96792.38;;;-3.41;75.11
72395;BME280;60384;48.152;11.614;2022-12-18T03:07:16;96795.22;;;-3.42;74.24
72395;BME280;60384;48.152;11.614;2022-12-18T03:10:25;96783.97;;;-3.43;74.92
72395;BME280;60384;48.152;11.614;2022-12-18T03:13:34;96786.34;;;-3.41;75.54
72395;BME280;60384;48.152;11.614;2022-12-18T03:16:40;96786.59;;;-3.43;74.63
72395;BME280;60384;48.152;11.614;2022-12-18T03:19:43;96783.75;;;-3.41;75.73
72395;BME280;60384;48.152;11.614;2022-12-18T03:22:52;96779.56;;;-3.42;75.25
72395;BME280;60384;48.152;11.614;2022-12-18T03:25:58;96770.91;;;-3.43;74.07
72395;BME280;60384;48.152;11.614;2022-12-18T03:29:09;96784.56;;;-3.41;74.99
72395;BME280;60384;48.152;11.614;2022-12-18T03:32:15;96776.34;;;-3.38;75.01
72395;BME280;60384;48.152;11.614;2022-12-18T03:35:27;96784.97;;;-3.37;74.70
72395;BME280;60384;48.152;11.614;2022-12-18T03:38:30;96774.53;;;-3.37;74.62
72395;BME280;60384;48.152;11.614;2022-12-18T03:41:37;96783.16;;;-3.37;74.54
72395;BME280;60384;48.152;11.614;2022-12-18T03:45:05;96787.78;;;-3.32;74.68
72395;BME280;60384;48.152;11.614;2022-12-18T03:48:16;96785.19;;;-3.32;75.43
72395;BME280;60384;48.152;11.614;2022-12-18T03:51:25;96792.59;;;-3.29;75.28
72395;BME280;60384;48.152;11.614;2022-12-18T03:54:30;96792.19;;;-3.33;74.37
72395;BME280;60384;48.152;11.614;2022-12-18T03:57:42;96789.59;;;-3.33;75.38
72395;BME280;60384;48.152;11.614;2022-12-18T04:00:47;96783.38;;;-3.31;74.54
72395;BME280;60384;48.152;11.614;2022-12-18T04:03:52;96791.19;;;-3.31;74.96
72395;BME280;60384;48.152;11.614;2022-12-18T04:06:55;96798.22;;;-3.32;74.24
72395;BME280;60384;48.152;11.614;2022-12-18T04:10:00;96798.03;;;-3.30;75.46
72395;BME280;60384;48.152;11.614;2022-12-18T04:13:06;96791.78;;;-3.29;75.09
72395;BME280;60384;48.152;11.614;2022-12-18T04:16:11;96793.59;;;-3.30;75.08
72395;BME280;60384;48.152;11.614;2022-12-18T04:19:16;96794.00;;;-3.33;74.06
72395;BME280;60384;48.152;11.614;2022-12-18T04:22:21;96788.78;;;-3.33;75.26
72395;BME280;60384;48.152;11.614;2022-12-18T04:25:29;96789.59;;;-3.33;75.15
72395;BME280;60384;48.152;11.614;2022-12-18T04:28:40;96789.78;;;-3.34;75.11
72395;BME280;60384;48.152;11.614;2022-12-18T04:31:44;96795.81;;;-3.34;75.52
72395;BME280;60384;48.152;11.614;2022-12-18T04:34:46;96800.03;;;-3.33;75.49
72395;BME280;60384;48.152;11.614;2022-12-18T04:37:48;96801.03;;;-3.34;74.14
72395;BME280;60384;48.152;11.614;2022-12-18T04:40:50;96801.03;;;-3.34;73.91
72395;BME280;60384;48.152;11.614;2022-12-18T04:43:58;96802.03;;;-3.35;75.19
72395;BME280;60384;48.152;11.614;2022-12-18T04:47:02;96793.63;;;-3.37;74.09
72395;BME280;60384;48.152;11.614;2022-12-18T04:50:05;96815.31;;;-3.36;75.32
72395;BME280;60384;48.152;11.614;2022-12-18T04:53:07;96819.72;;;-3.37;75.08
72395;BME280;60384;48.152;11.614;2022-12-18T04:56:10;96820.53;;;-3.36;73.96
72395;BME280;60384;48.152;11.614;2022-12-18T04:59:14;96819.31;;;-3.34;75.47
72395;BME280;60384;48.152;11.614;2022-12-18T05:02:17;96818.31;;;-3.33;74.48
72395;BME280;60384;48.152;11.614;2022-12-18T05:05:19;96821.75;;;-3.32;73.90
72395;BME280;60384;48.152;11.614;2022-12-18T05:08:21;96829.38;;;-3.30;75.68
72395;BME280;60384;48.152;11.614;2022-12-18T05:11:23;96823.75;;;-3.27;73.89
72395;BME280;60384;48.152;11.614;2022-12-18T05:14:25;96827.78;;;-3.25;74.43
72395;BME280;60384;48.152;11.614;2022-12-18T05:17:29;96836.19;;;-3.23;75.17
72395;BME280;60384;48.152;11.614;2022-12-18T05:20:31;96837.41;;;-3.25;74.94
72395;BME280;60384;48.152;11.614;2022-12-18T05:23:33;96832.19;;;-3.25;73.92
72395;BME280;60384;48.152;11.614;2022-12-18T05:26:35;96824.34;;;-3.25;74.99
72395;BME280;60384;48.152;11.614;2022-12-18T05:29:37;96829.78;;;-3.27;74.71
72395;BME280;60384;48.152;11.614;2022-12-18T05:32:40;96830.16;;;-3.30;73.94
72395;BME280;60384;48.152;11.614;2022-12-18T05:35:43;96841.63;;;-3.31;73.95
72395;BME280;60384;48.152;11.614;2022-12-18T05:38:45;96838.00;;;-3.30;74.04
72395;BME280;60384;48.152;11.614;2022-12-18T05:41:47;96840.41;;;-3.28;74.89
72395;BME280;60384;48.152;11.614;2022-12-18T05:44:49;96845.63;;;-3.28;73.91
72395;BME280;60384;48.152;11.614;2022-12-18T05:47:53;96844.63;;;-3.27;73.82
72395;BME280;60384;48.152;11.614;2022-12-18T05:50:55;96837.00;;;-3.29;74.89
72395;BME280;60384;48.152;11.614;2022-12-18T05:53:56;96847.06;;;-3.33;75.56
72395;BME280;60384;48.152;11.614;2022-12-18T05:56:58;96854.88;;;-3.33;75.09
72395;BME280;60384;48.152;11.614;2022-12-18T06:00:01;96847.84;;;-3.32;74.02
72395;BME280;60384;48.152;11.614;2022-12-18T06:03:14;96861.31;;;-3.28;74.56
72395;BME280;60384;48.152;11.614;2022-12-18T06:06:18;96853.28;;;-3.27;75.49
72395;BME280;60384;48.152;11.614;2022-12-18T06:09:20;96850.66;;;-3.27;75.02
72395;BME280;60384;48.152;11.614;2022-12-18T06:12:22;96853.47;;;-3.28;74.19
72395;BME280;60384;48.152;11.614;2022-12-18T06:15:24;96853.66;;;-3.30;74.27
72395;BME280;60384;48.152;11.614;2022-12-18T06:18:27;96859.09;;;-3.31;75.20
72395;BME280;60384;48.152;11.614;2022-12-18T06:21:30;96859.91;;;-3.31;74.46
72395;BME280;60384;48.152;11.614;2022-12-18T06:24:32;96852.88;;;-3.30;75.12
72395;BME280;60384;48.152;11.614;2022-12-18T06:27:34;96858.69;;;-3.28;74.72
72395;BME280;60384;48.152;11.614;2022-12-18T06:30:36;96863.91;;;-3.28;75.02
72395;BME280;60384;48.152;11.614;2022-12-18T06:33:39;96867.34;;;-3.28;75.68
72395;BME280;60384;48.152;11.614;2022-12-18T06:36:41;96867.53;;;-3.29;74.33
72395;BME280;60384;48.152;11.614;2022-12-18T06:39:43;96880.19;;;-3.33;75.58
72395;BME280;60384;48.152;11.614;2022-12-18T06:42:45;96874.34;;;-3.35;75.75
72395;BME280;60384;48.152;11.614;2022-12-18T06:45:47;96886.41;;;-3.34;74.44
72395;BME280;60384;48.152;11.614;2022-12-18T06:48:54;96889.84;;;-3.34;75.58
72395;BME280;60384;48.152;11.614;2022-12-18T06:51:56;96890.84;;;-3.35;74.21
72395;BME280;60384;48.152;11.614;2022-12-18T06:54:58;96898.09;;;-3.37;74.24
72395;BME280;60384;48.152;11.614;2022-12-18T06:58:00;96889.00;;;-3.41;74.24
72395;BME280;60384;48.152;11.614;2022-12-18T07:01:03;96904.28;;;-3.44;74.55
72395;BME280;60384;48.152;11.614;2022-12-18T07:04:06;96909.88;;;-3.47;75.31
72395;BME280;60384;48.152;11.614;2022-12-18T07:07:08;96916.94;;;-3.48;74.54
72395;BME280;60384;48.152;11.614;2022-12-18T07:10:10;96921.34;;;-3.48;74.74
72395;BME280;60384;48.152;11.614;2022-12-18T07:13:12;96920.56;;;-3.49;74.14
72395;BME280;60384;48.152;11.614;2022-12-18T07:16:15;96918.13;;;-3.50;75.12
72395;BME280;60384;48.152;11.614;2022-12-18T07:19:19;96925.16;;;-3.51;75.17
72395;BME280;60384;48.152;11.614;2022-12-18T07:22:21;96928.56;;;-3.50;75.50
72395;BME280;60384;48.152;11.614;2022-12-18T07:25:23;96935.81;;;-3.46;74.00
72395;BME280;60384;48.152;11.614;2022-12-18T07:28:25;96938.63;;;-3.41;75.52
72395;BME280;60384;48.152;11.614;2022-12-18T07:31:27;96937.25;;;-3.37;74.60
72395;BME280;60384;48.152;11.614;2022-12-18T07:34:30;96933.44;;;-3.34;75.20
72395;BME280;60384;48.152;11.614;2022-12-18T07:37:32;96935.84;;;-3.33;75.43
72395;BME280;60384;48.152;11.614;2022-12-18T07:40:34;96937.66;;;-3.33;73.93
72395;BME280;60384;48.152;11.614;2022-12-18T07:43:36;96926.03;;;-3.30;73.66
72395;BME280;60384;48.152;11.614;2022-12-18T07:46:39;96923.81;;;-3.27;75.34
72395;BME280;60384;48.152;11.614;2022-12-18T07:49:42;96931.44;;;-3.25;73.69
72395;BME280;60384;48.152;11.614;2022-12-18T07:52:44;96927.03;;;-3.25;74.56
72395;BME280;60384;48.152;11.614;2022-12-18T07:55:46;96923.63;;;-3.25;73.97
72395;BME280;60384;48.152;11.614;2022-12-18T07:58:48;96927.63;;;-3.23;73.93
72395;BME280;60384;48.152;11.614;2022-12-18T08:01:50;96931.06;;;-3.16;73.80
72395;BME280;60384;48.152;11.614;2022-12-18T08:04:53;96935.50;;;-3.10;74.88
72395;BME280;60384;48.152;11.614;2022-12-18T08:07:55;96931.88;;;-3.09;73.83
72395;BME280;60384;48.152;11.614;2022-12-18T08:10:57;96933.25;;;-3.13;74.88
72395;BME280;60384;48.152;11.614;2022-12-18T08:13:59;96941.91;;;-3.12;74.94
72395;BME280;60384;48.152;11.614;2022-12-18T08:17:01;96952.78;;;-3.09;73.49
72395;BME280;60384;48.152;11.614;2022-12-18T08:20:05;96956.78;;;-3.06;73.96
72395;BME280;60384;48.152;11.614;2022-12-18T08:23:07;96959.41;;;-3.06;74.83
72395;BME280;60384;48.152;11.614;2022-12-18T08:26:09;96952.56;;;-3.07;73.91
72395;BME280;60384;48.152;11.614;2022-12-18T08:29:13;96963.25;;;-3.02;74.27
72395;BME280;60384;48.152;11.614;2022-12-18T08:32:15;96966.44;;;-3.00;73.58
72395;BME280;60384;48.152;11.614;2022-12-18T08:35:18;96962.22;;;-3.01;74.53
72395;BME280;60384;48.152;11.614;2022-12-18T08:38:20;96953.00;;;-2.97;74.69
72395;BME280;60384;48.152;11.614;2022-12-18T08:41:23;96962.44;;;-2.96;73.90
72395;BME280;60384;48.152;11.614;2022-12-18T08:44:25;96962.22;;;-2.95;73.77
72395;BME280;60384;48.152;11.614;2022-12-18T08:47:38;96960.03;;;-2.91;73.21
72395;BME280;60384;48.152;11.614;2022-12-18T08:50:41;96964.84;;;-2.88;74.16
72395;BME280;60384;48.152;11.614;2022-12-18T08:53:47;96961.06;;;-2.85;74.42
72395;BME280;60384;48.152;11.614;2022-12-18T08:56:48;96965.66;;;-2.87;74.08
72395;BME280;60384;48.152;11.614;2022-12-18T08:59:51;96956.41;;;-2.83;74.40
72395;BME280;60384;48.152;11.614;2022-12-18T09:02:53;96954.81;;;-2.78;73.63
72395;BME280;60384;48.152;11.614;2022-12-18T09:05:56;96962.84;;;-2.73;73.27
72395;BME280;60384;48.152;11.614;2022-12-18T09:08:58;96966.28;;;-2.66;74.10
72395;BME280;60384;48.152;11.614;2022-12-18T09:12:00;96962.84;;;-2.66;73.14
72395;BME280;60384;48.152;11.614;2022-12-18T09:15:03;96968.88;;;-2.66;74.09
72395;BME280;60384;48.152;11.614;2022-12-18T09:18:05;96966.91;;;-2.64;73.54
72395;BME280;60384;48.152;11.614;2022-12-18T09:21:10;96966.91;;;-2.64;74.29
72395;BME280;60384;48.152;11.614;2022-12-18T09:24:15;96963.84;;;-2.61;74.01
72395;BME280;60384;48.152;11.614;2022-12-18T09:27:17;96963.06;;;-2.61;74.00
72395;BME280;60384;48.152;11.614;2022-12-18T09:30:19;96959.25;;;-2.59;74.43
72395;BME280;60384;48.152;11.614;2022-12-18T09:33:21;96961.44;;;-2.56;73.77
72395;BME280;60384;48.152;11.614;2022-12-18T09:36:24;96963.25;;;-2.50;74.34
72395;BME280;60384;48.152;11.614;2022-12-18T09:39:26;96971.50;;;-2.39;74.08
72395;BME280;60384;48.152;11.614;2022-12-18T09:42:28;96962.25;;;-2.35;73.80
72395;BME280;60384;48.152;11.614;2022-12-18T09:45:35;96961.44;;;-2.42;72.88
72395;BME280;60384;48.152;11.614;2022-12-18T09:48:41;96960.81;;;-2.44;73.92
72395;BME280;60384;48.152;11.614;2022-12-18T09:51:50;96964.25;;;-2.51;74.08
72395;BME280;60384;48.152;11.614;2022-12-18T09:54:58;96950.78;;;-2.54;74.04
72395;BME280;60384;48.152;11.614;2022-12-18T09:58:06;96949.16;;;-2.55;73.22
72395;BME280;60384;48.152;11.614;2022-12-18T10:01:20;96954.63;;;-2.57;73.30
72395;BME280;60384;48.152;11.614;2022-12-18T10:04:23;96947.16;;;-2.60;73.82
72395;BME280;60384;48.152;11.614;2022-12-18T10:07:32;96943.34;;;-2.64;74.24
72395;BME280;60384;48.152;11.614;2022-12-18T10:10:45;96950.00;;;-2.68;74.49
72395;BME280;60384;48.152;11.614;2022-12-18T10:13:52;96941.13;;;-2.67;73.31
72395;BME280;60384;48.152;11.614;2022-12-18T10:17:00;96926.06;;;-2.65;73.52
72395;BME280;60384;48.152;11.614;2022-12-18T10:20:11;96930.28;;;-2.64;74.05
72395;BME280;60384;48.152;11.614;2022-12-18T10:23:20;96930.66;;;-2.60;73.79
72395;BME280;60384;48.152;11.614;2022-12-18T10:26:25;96933.47;;;-2.55;73.61
72395;BME280;60384;48.152;11.614;2022-12-18T10:29:27;96926.63;;;-2.50;73.34
72395;BME280;60384;48.152;11.614;2022-12-18T10:32:30;96921.41;;;-2.43;73.44
72395;BME280;60384;48.152;11.614;2022-12-18T10:35:31;96912.13;;;-2.39;72.68
72395;BME280;60384;48.152;11.614;2022-12-18T10:38:35;96905.69;;;-2.36;72.86
72395;BME280;60384;48.152;11.614;2022-12-18T10:41:37;96914.34;;;-2.42;74.15
72395;BME280;60384;48.152;11.614;2022-12-18T10:44:39;96913.97;;;-2.46;73.33
72395;BME280;60384;48.152;11.614;2022-12-18T10:47:46;96906.94;;;-2.52;73.48
72395;BME280;60384;48.152;11.614;2022-12-18T10:50:50;96914.59;;;-2.57;73.43
72395;BME280;60384;48.152;11.614;2022-12-18T10:53:59;96912.38;;;-2.54;73.20
72395;BME280;60384;48.152;11.614;2022-12-18T10:57:15;96918.78;;;-2.50;73.78
72395;BME280;60384;48.152;11.614;2022-12-18T11:00:23;96923.63;;;-2.46;73.24
72395;BME280;60384;48.152;11.614;2022-12-18T11:03:32;96916.97;;;-2.42;74.14
72395;BME280;60384;48.152;11.614;2022-12-18T11:06:52;96916.78;;;-2.34;74.29
72395;BME280;60384;48.152;11.614;2022-12-18T11:10:03;96929.63;;;-2.33;73.15
72395;BME280;60384;48.152;11.614;2022-12-18T11:13:15;96928.63;;;-2.32;73.55
72395;BME280;60384;48.152;11.614;2022-12-18T11:16:19;96921.78;;;-2.33;74.00
72395;BME280;60384;48.152;11.614;2022-12-18T11:19:30;96937.28;;;-2.31;73.45
72395;BME280;60384;48.152;11.614;2022-12-18T11:22:35;96938.91;;;-2.30;73.01
72395;BME280;60384;48.152;11.614;2022-12-18T11:25:50;96927.81;;;-2.26;73.62
72395;BME280;60384;48.152;11.614;2022-12-18T11:29:08;96927.00;;;-2.26;73.26
72395;BME280;60384;48.152;11.614;2022-12-18T11:32:27;96929.41;;;-2.25;73.72
72395;BME280;60384;48.152;11.614;2022-12-18T11:35:39;96930.41;;;-2.19;73.60
72395;BME280;60384;48.152;11.614;2022-12-18T11:38:45;96923.75;;;-2.15;73.86
72395;BME280;60384;48.152;11.614;2022-12-18T11:41:56;96922.75;;;-2.08;73.65
72395;BME280;60384;48.152;11.614;2022-12-18T11:45:29;96905.63;;;-2.10;72.96
72395;BME280;60384;48.152;11.614;2022-12-18T11:48:36;96907.22;;;-2.09;73.15
72395;BME280;60384;48.152;11.614;2022-12-18T11:51:45;96903.63;;;-2.08;73.64
72395;BME280;60384;48.152;11.614;2022-12-18T11:54:51;96904.22;;;-2.06;73.41
72395;BME280;60384;48.152;11.614;2022-12-18T11:58:02;96902.81;;;-2.09;73.67
72395;BME280;60384;48.152;11.614;2022-12-18T12:01:15;96902.00;;;-2.09;73.21
72395;BME280;60384;48.152;11.614;2022-12-18T12:05:04;96904.41;;;-2.08;73.58
72395;BME280;60384;48.152;11.614;2022-12-18T12:08:13;96902.59;;;-2.07;73.54
72395;BME280;60384;48.152;11.614;2022-12-18T12:11:27;96890.31;;;-2.06;73.17
72395;BME280;60384;48.152;11.614;2022-12-18T12:14:45;96901.19;;;-2.03;72.72
72395;BME280;60384;48.152;11.614;2022-12-18T12:17:51;96894.31;;;-2.04;73.23
72395;BME280;60384;48.152;11.614;2022-12-18T12:21:03;96892.72;;;-2.05;73.52
72395;BME280;60384;48.152;11.614;2022-12-18T12:24:26;96891.34;;;-2.08;73.33
72395;BME280;60384;48.152;11.614;2022-12-18T12:27:38;96883.88;;;-2.11;73.72
72395;BME280;60384;48.152;11.614;2022-12-18T12:30:54;96883.88;;;-2.11;73.31
72395;BME280;60384;48.152;11.614;2022-12-18T12:34:06;96876.25;;;-2.12;73.82
72395;BME280;60384;48.152;11.614;2022-12-18T12:37:29;96873.41;;;-2.11;73.99
72395;BME280;60384;48.152;11.614;2022-12-18T12:40:35;96868.97;;;-2.10;73.76
72395;BME280;60384;48.152;11.614;2022-12-18T12:43:42;96874.81;;;-2.08;73.47
72395;BME280;60384;48.152;11.614;2022-12-18T12:46:52;96877.47;;;-2.15;74.04
72395;BME280;60384;48.152;11.614;2022-12-18T12:50:01;96876.72;;;-2.28;73.37
72395;BME280;60384;48.152;11.614;2022-12-18T12:53:07;96878.91;;;-2.32;74.44
72395;BME280;60384;48.152;11.614;2022-12-18T12:56:15;96876.50;;;-2.33;74.20
72395;BME280;60384;48.152;11.614;2022-12-18T12:59:23;96880.72;;;-2.32;73.40
72395;BME280;60384;48.152;11.614;2022-12-18T13:02:33;96886.19;;;-2.34;73.72
72395;BME280;60384;48.152;11.614;2022-12-18T13:05:43;96888.19;;;-2.36;74.51
72395;BME280;60384;48.152;11.614;2022-12-18T13:08:55;96883.56;;;-2.34;73.63
72395;BME280;60384;48.152;11.614;2022-12-18T13:12:04;96886.38;;;-2.29;74.03
72395;BME280;60384;48.152;11.614;2022-12-18T13:15:36;96877.09;;;-2.25;73.37
72395;BME280;60384;48.152;11.614;2022-12-18T13:18:48;96882.31;;;-2.18;73.56
72395;BME280;60384;48.152;11.614;2022-12-18T13:21:55;96895.16;;;-2.10;73.67
72395;BME280;60384;48.152;11.614;2022-12-18T13:24:57;96898.38;;;-2.08;73.23
72395;BME280;60384;48.152;11.614;2022-12-18T13:28:02;96896.97;;;-2.11;73.46
72395;BME280;60384;48.152;11.614;2022-12-18T13:31:04;96897.78;;;-2.10;74.01
72395;BME280;60384;48.152;11.614;2022-12-18T13:34:16;96893.56;;;-2.11;73.27
72395;BME280;60384;48.152;11.614;2022-12-18T13:37:41;96895.97;;;-2.10;73.43
72395;BME280;60384;48.152;11.614;2022-12-18T13:40:58;96891.97;;;-2.12;73.71
72395;BME280;60384;48.152;11.614;2022-12-18T13:44:11;96890.56;;;-2.21;73.93
72395;BME280;60384;48.152;11.614;2022-12-18T13:47:27;96894.78;;;-2.27;73.86
72395;BME280;60384;48.152;11.614;2022-12-18T13:50:34;96891.19;;;-2.32;74.25
72395;BME280;60384;48.152;11.614;2022-12-18T13:53:42;96893.44;;;-2.36;74.45
72395;BME280;60384;48.152;11.614;2022-12-18T13:56:46;96887.19;;;-2.35;74.09
72395;BME280;60384;48.152;11.614;2022-12-18T13:59:48;96865.84;;;-2.38;74.46
72395;BME280;60384;48.152;11.614;2022-12-18T14:02:51;96871.91;;;-2.44;73.46
72395;BME280;60384;48.152;11.614;2022-12-18T14:05:58;96875.31;;;-2.51;73.85
72395;BME280;60384;48.152;11.614;2022-12-18T14:09:02;96873.94;;;-2.53;74.13
72395;BME280;60384;48.152;11.614;2022-12-18T14:12:05;96875.13;;;-2.56;74.64
72395;BME280;60384;48.152;11.614;2022-12-18T14:15:31;96880.19;;;-2.61;73.92
72395;BME280;60384;48.152;11.614;2022-12-18T14:18:43;96886.22;;;-2.60;74.45
72395;BME280;60384;48.152;11.614;2022-12-18T14:21:49;96886.84;;;-2.65;73.72
72395;BME280;60384;48.152;11.614;2022-12-18T14:25:10;96884.41;;;-2.66;74.51
72395;BME280;60384;48.152;11.614;2022-12-18T14:28:15;96890.06;;;-2.69;74.69
72395;BME280;60384;48.152;11.614;2022-12-18T14:31:18;96899.72;;;-2.76;74.13
72395;BME280;60384;48.152;11.614;2022-12-18T14:34:26;96903.53;;;-2.79;74.23
72395;BME280;60384;48.152;11.614;2022-12-18T14:37:29;96900.53;;;-2.76;74.77
72395;BME280;60384;48.152;11.614;2022-12-18T14:40:31;96900.53;;;-2.76;74.42
72395;BME280;60384;48.152;11.614;2022-12-18T14:43:35;96893.06;;;-2.79;73.77
72395;BME280;60384;48.152;11.614;2022-12-18T14:46:38;96882.03;;;-2.81;74.66
72395;BME280;60384;48.152;11.614;2022-12-18T14:49:43;96883.84;;;-2.81;73.84
72395;BME280;60384;48.152;11.614;2022-12-18T14:52:47;96890.88;;;-2.82;74.92
72395;BME280;60384;48.152;11.614;2022-12-18T14:55:50;96883.44;;;-2.85;74.17
72395;BME280;60384;48.152;11.614;2022-12-18T14:58:52;96881.22;;;-2.88;74.80
72395;BME280;60384;48.152;11.614;2022-12-18T15:02:02;96888.66;;;-2.92;74.60
72395;BME280;60384;48.152;11.614;2022-12-18T15:05:17;96888.25;;;-2.95;74.14
72395;BME280;60384;48.152;11.614;2022-12-18T15:08:31;96886.84;;;-2.98;75.40
72395;BME280;60384;48.152;11.614;2022-12-18T15:11:45;96887.06;;;-2.99;74.33
72395;BME280;60384;48.152;11.614;2022-12-18T15:14:47;96888.66;;;-3.05;74.01
72395;BME280;60384;48.152;11.614;2022-12-18T15:17:56;96891.06;;;-3.10;74.55
72395;BME280;60384;48.152;11.614;2022-12-18T15:21:00;96889.25;;;-3.16;74.20
72395;BME280;60384;48.152;11.614;2022-12-18T15:24:17;96889.88;;;-3.20;75.25
72395;BME280;60384;48.152;11.614;2022-12-18T15:27:31;96884.81;;;-3.22;75.25
72395;BME280;60384;48.152;11.614;2022-12-18T15:30:44;96891.84;;;-3.22;75.18
72395;BME280;60384;48.152;11.614;2022-12-18T15:34:04;96884.03;;;-3.22;75.40
72395;BME280;60384;48.152;11.614;2022-12-18T15:37:12;96880.41;;;-3.21;75.62
72395;BME280;60384;48.152;11.614;2022-12-18T15:40:17;96880.41;;;-3.21;75.73
72395;BME280;60384;48.152;11.614;2022-12-18T15:43:21;96877.00;;;-3.22;74.78
72395;BME280;60384;48.152;11.614;2022-12-18T15:46:38;96883.22;;;-3.23;74.42
72395;BME280;60384;48.152;11.614;2022-12-18T15:49:40;96891.47;;;-3.26;75.57
72395;BME280;60384;48.152;11.614;2022-12-18T15:52:45;96887.44;;;-3.28;75.50
72395;BME280;60384;48.152;11.614;2022-12-18T15:55:49;96882.19;;;-3.28;74.44
72395;BME280;60384;48.152;11.614;2022-12-18T15:59:12;96888.03;;;-3.26;75.55
72395;BME280;60384;48.152;11.614;2022-12-18T16:02:17;96885.03;;;-3.23;75.43
72395;BME280;60384;48.152;11.614;2022-12-18T16:05:20;96887.25;;;-3.20;74.68
72395;BME280;60384;48.152;11.614;2022-12-18T16:08:23;96880.81;;;-3.18;75.04
72395;BME280;60384;48.152;11.614;2022-12-18T16:11:31;96879.19;;;-3.19;74.74
72395;BME280;60384;48.152;11.614;2022-12-18T16:14:39;96871.16;;;-3.24;74.59